Time;durP1;ratioP1;P1;durP2;ratioP2;P2;SDS_P1;SDS_P2;PMS_P1;PMS_P2;Temp;Humidity;BMP_temperature;BMP_pressure;BME280_temperature;BME280_humidity;BME280_pressure;Samples;Min_cycle;Max_cycle;Signal;HPM_P1;HPM_P2
2023/10/02 00:01:53;;;;;;;;;15.40;13.80;;;;;-143.00;100.00;60422.56;5096969;27;45552;-61
2023/10/02 00:04:20;;;;;;;;;17.50;15.25;;;;;-143.00;100.00;60422.56;5096956;27;45386;-61
2023/10/02 00:06:50;;;;;;;;;17.50;15.50;;;;;-143.00;100.00;60422.56;5113068;27;45579;-61
2023/10/02 00:09:20;;;;;;;;;18.00;16.00;;;;;-143.00;100.00;60422.56;5117248;27;45477;-61
2023/10/02 00:11:46;;;;;;;;;22.00;16.60;;;;;-143.00;100.00;60422.56;5117246;27;45415;-61
2023/10/02 00:14:25;;;;;;;;;15.60;14.60;;;;;-143.00;100.00;60422.56;5117233;27;45360;-61
2023/10/02 00:16:59;;;;;;;;;23.00;16.75;;;;;-143.00;100.00;60422.56;5116806;27;45439;-61
2023/10/02 00:19:27;;;;;;;;;15.40;14.20;;;;;-143.00;100.00;60422.56;5116673;27;45460;-61
2023/10/02 00:21:57;;;;;;;;;18.20;14.80;;;;;-143.00;100.00;60422.56;5117412;27;45468;-61
2023/10/02 00:24:27;;;;;;;;;14.60;13.40;;;;;-143.00;100.00;60422.56;5117402;27;45304;-61
2023/10/02 00:26:58;;;;;;;;;19.25;16.75;;;;;-143.00;100.00;60422.56;5116797;27;45555;-61
2023/10/02 00:29:26;;;;;;;;;13.75;12.25;;;;;-143.00;100.00;60422.56;5116867;27;46001;-61
2023/10/02 00:31:52;;;;;;;;;15.00;14.40;;;;;-143.00;100.00;60422.56;5117311;27;45494;-61
2023/10/02 00:34:30;;;;;;;;;13.25;12.00;;;;;-143.00;100.00;60422.56;5117255;27;45540;-61
2023/10/02 00:36:56;;;;;;;;;14.75;13.50;;;;;-143.00;100.00;60422.56;5116478;27;45514;-61
2023/10/02 00:39:25;;;;;;;;;15.25;15.25;;;;;-143.00;100.00;60422.56;5116774;27;46221;-61
2023/10/02 00:42:32;;;;;;;;;18.40;14.20;;;;;-143.00;100.00;60422.56;5116408;27;45434;-61
2023/10/02 00:47:42;;;;;;;;;16.25;13.75;;;;;-143.00;100.00;60422.56;5116035;27;45549;-61
2023/10/02 00:50:23;;;;;;;;;21.80;16.20;;;;;-143.00;100.00;60422.56;5115954;27;45396;-61
2023/10/02 00:53:01;;;;;;;;;16.80;15.60;;;;;-143.00;100.00;60422.56;5116031;27;45533;-61
2023/10/02 00:55:35;;;;;;;;;15.60;12.60;;;;;-143.00;100.00;60422.56;5116883;27;45434;-61
2023/10/02 00:58:05;;;;;;;;;14.00;8.00;;;;;-143.00;100.00;60422.56;5116348;27;45400;-61
2023/10/02 01:00:42;;;;;;;;;13.50;12.50;;;;;-143.00;100.00;60422.56;5116618;27;45412;-61
2023/10/02 01:03:16;;;;;;;;;14.40;13.40;;;;;-143.00;100.00;60422.56;5116260;27;45418;-61
2023/10/02 01:05:58;;;;;;;;;16.80;14.00;;;;;-143.00;100.00;60422.56;5108503;27;45383;-61
2023/10/02 01:08:24;;;;;;;;;16.50;12.75;;;;;-143.00;100.00;60422.56;5095857;27;45395;-61
2023/10/02 01:10:57;;;;;;;;;17.50;16.75;;;;;-143.00;100.00;60422.56;5095606;27;46339;-61
2023/10/02 01:13:29;;;;;;;;;19.40;16.20;;;;;-143.00;100.00;60422.56;5096060;27;45427;-61
2023/10/02 01:15:56;;;;;;;;;14.50;13.25;;;;;-143.00;100.00;60422.56;5096082;27;45396;-61
2023/10/02 01:18:21;;;;;;;;;15.75;15.75;;;;;-143.00;100.00;60422.56;5096121;27;45354;-61
2023/10/02 01:20:48;;;;;;;;;19.75;16.75;;;;;-143.00;100.00;60422.56;5095753;27;46344;-61
2023/10/02 01:23:17;;;;;;;;;12.20;11.60;;;;;-143.00;100.00;60422.56;5095652;27;45453;-61
2023/10/02 01:25:47;;;;;;;;;18.00;14.50;;;;;-143.00;100.00;60422.56;5095465;27;45424;-61
2023/10/02 01:28:15;;;;;;;;;13.75;13.00;;;;;-143.00;100.00;60422.56;5095365;27;45517;-61
2023/10/02 01:30:41;;;;;;;;;21.00;17.25;;;;;-143.00;100.00;60422.56;5095376;27;46430;-61
2023/10/02 01:33:23;;;;;;;;;17.40;15.60;;;;;-143.00;100.00;60422.56;5095566;27;45337;-61
2023/10/02 01:35:49;;;;;;;;;16.25;14.25;;;;;-143.00;100.00;60422.56;5077282;27;45441;-61
2023/10/02 01:38:21;;;;;;;;;22.75;18.50;;;;;-143.00;100.00;60422.56;5095644;27;45560;-61
2023/10/02 01:40:49;;;;;;;;;21.25;19.25;;;;;-143.00;100.00;60422.56;5095259;27;46028;-61
2023/10/02 01:43:16;;;;;;;;;17.80;15.00;;;;;-143.00;100.00;60422.56;5095441;27;45362;-61
2023/10/02 01:45:45;;;;;;;;;16.00;13.20;;;;;-143.00;100.00;60422.56;5095512;27;45410;-61
2023/10/02 01:51:29;;;;;;;;;13.25;8.75;;;;;-143.00;100.00;60422.56;5094961;27;45428;-61
2023/10/02 01:53:59;;;;;;;;;14.00;13.80;;;;;-143.00;100.00;60422.56;5095287;27;45408;-61
2023/10/02 01:56:34;;;;;;;;;17.50;14.50;;;;;-143.00;100.00;60422.56;5095391;27;45451;-61
2023/10/02 01:59:19;;;;;;;;;16.00;15.75;;;;;-143.00;100.00;60422.56;5095399;27;45515;-61
2023/10/02 02:01:55;;;;;;;;;19.25;16.50;;;;;-143.00;100.00;60422.56;5095120;27;46478;-61
2023/10/02 02:04:28;;;;;;;;;15.60;14.80;;;;;-143.00;100.00;60422.56;5095387;27;45426;-61
2023/10/02 02:06:56;;;;;;;;;12.80;12.80;;;;;-143.00;100.00;60422.56;5113125;27;45368;-60
2023/10/02 02:09:27;;;;;;;;;16.00;16.00;;;;;-143.00;100.00;60422.56;5115723;27;45454;-61
2023/10/02 02:12:06;;;;;;;;;15.50;14.25;;;;;-143.00;100.00;60422.56;5115453;27;45547;-61
2023/10/02 02:14:33;;;;;;;;;18.00;15.60;;;;;-143.00;100.00;60422.56;5114755;27;45586;-62
2023/10/02 02:17:01;;;;;;;;;16.00;14.75;;;;;-143.00;100.00;60422.56;5115458;27;45424;-61
2023/10/02 02:19:28;;;;;;;;;18.50;18.00;;;;;-143.00;100.00;60422.56;5115523;27;45534;-61
2023/10/02 02:21:56;;;;;;;;;24.75;15.50;;;;;-143.00;100.00;60422.56;5115358;27;45482;-61
2023/10/02 02:24:25;;;;;;;;;22.50;18.25;;;;;-143.00;100.00;60422.56;5115344;27;45403;-61
2023/10/02 02:26:57;;;;;;;;;22.25;16.25;;;;;-143.00;100.00;60422.56;5115121;27;45432;-61
2023/10/02 02:29:23;;;;;;;;;22.25;16.25;;;;;-143.00;100.00;60422.56;5115122;27;45496;-61
2023/10/02 02:31:50;;;;;;;;;16.50;15.75;;;;;-143.00;100.00;60422.56;5115445;27;45421;-61
2023/10/02 02:34:16;;;;;;;;;17.40;17.00;;;;;-143.00;100.00;60422.56;5115389;27;45364;-59
2023/10/02 02:36:47;;;;;;;;;16.00;15.25;;;;;-143.00;100.00;60422.56;5115447;27;45420;-61
2023/10/02 02:39:16;;;;;;;;;15.50;15.50;;;;;-143.00;100.00;60422.56;5115420;27;45438;-62
2023/10/02 02:41:43;;;;;;;;;20.25;16.75;;;;;-143.00;100.00;60422.56;5115014;27;46572;-61
2023/10/02 02:46:54;;;;;;;;;23.00;16.75;;;;;-143.00;100.00;60422.56;5115760;27;45502;-61
2023/10/02 02:49:19;;;;;;;;;17.75;17.75;;;;;-143.00;100.00;60422.56;5115477;27;45428;-61
2023/10/02 02:51:48;;;;;;;;;17.25;16.50;;;;;-143.00;100.00;60422.56;5114875;27;47349;-61
2023/10/02 02:54:14;;;;;;;;;15.75;15.50;;;;;-143.00;100.00;60422.56;5096701;27;45443;-61
2023/10/02 02:56:40;;;;;;;;;23.00;18.25;;;;;-143.00;100.00;60422.56;5114994;27;45343;-61
2023/10/02 02:59:08;;;;;;;;;21.75;17.00;;;;;-143.00;100.00;60422.56;5114990;27;45297;-61
2023/10/02 03:01:34;;;;;;;;;21.25;15.50;;;;;-143.00;100.00;60422.56;5117047;27;47018;-61
2023/10/02 03:04:11;;;;;;;;;18.20;16.40;;;;;-143.00;100.00;60422.56;5118597;27;45418;-61
2023/10/02 03:06:37;;;;;;;;;17.25;14.00;;;;;-143.00;100.00;60422.56;5103068;27;45392;-61
2023/10/02 03:09:05;;;;;;;;;14.50;14.50;;;;;-143.00;100.00;60422.56;5098124;27;45478;-61
2023/10/02 03:11:32;;;;;;;;;17.75;15.75;;;;;-143.00;100.00;60422.56;5096591;27;46173;-62
2023/10/02 03:14:12;;;;;;;;;22.80;15.80;;;;;-143.00;100.00;60422.56;5079246;27;45404;-61
2023/10/02 03:16:38;;;;;;;;;20.00;16.00;;;;;-143.00;100.00;60422.56;5097676;27;45416;-61
2023/10/02 03:19:05;;;;;;;;;25.25;16.75;;;;;-143.00;100.00;60422.56;5097637;27;45366;-61
2023/10/02 03:21:30;;;;;;;;;15.00;13.25;;;;;-143.00;100.00;60422.56;5097469;27;46211;-61
2023/10/02 03:23:59;;;;;;;;;15.50;14.25;;;;;-143.00;100.00;60422.56;5097956;27;45415;-61
2023/10/02 03:29:02;;;;;;;;;19.00;17.50;;;;;-143.00;100.00;60422.56;5097015;27;45477;-62
2023/10/02 03:31:43;;;;;;;;;17.75;17.00;;;;;-143.00;100.00;60422.56;5097162;27;46094;-61
2023/10/02 03:37:00;;;;;;;;;20.00;14.50;;;;;-143.00;100.00;60422.56;5096967;27;45499;-61
2023/10/02 03:42:22;;;;;;;;;19.00;14.50;;;;;-143.00;100.00;60422.56;5097134;27;45491;-61
2023/10/02 03:44:49;;;;;;;;;15.00;15.00;;;;;-143.00;100.00;60422.56;5097262;27;45355;-62
2023/10/02 03:47:15;;;;;;;;;18.00;16.00;;;;;-143.00;100.00;60422.56;5097488;27;45534;-61
2023/10/02 03:49:45;;;;;;;;;21.50;17.75;;;;;-143.00;100.00;60422.56;5097411;27;45434;-62
2023/10/02 03:52:14;;;;;;;;;17.75;16.25;;;;;-143.00;100.00;60422.56;5096770;27;46334;-62
2023/10/02 03:54:43;;;;;;;;;19.00;15.80;;;;;-143.00;100.00;60422.56;5097033;27;45424;-62
2023/10/02 03:57:10;;;;;;;;;15.60;14.20;;;;;-143.00;100.00;60422.56;5096496;27;45404;-61
2023/10/02 03:59:51;;;;;;;;;14.25;14.25;;;;;-143.00;100.00;60422.56;5097276;27;45336;-61
2023/10/02 04:02:24;;;;;;;;;21.75;18.50;;;;;-143.00;100.00;60422.56;5096900;27;46109;-61
2023/10/02 04:04:49;;;;;;;;;19.40;18.20;;;;;-143.00;100.00;60422.56;5097381;27;45513;-61
2023/10/02 04:07:17;;;;;;;;;22.75;16.25;;;;;-143.00;100.00;60422.56;5117821;27;45306;-61
2023/10/02 04:09:49;;;;;;;;;17.25;14.75;;;;;-143.00;100.00;60422.56;5117500;27;45440;-62
2023/10/02 04:12:17;;;;;;;;;19.75;17.50;;;;;-143.00;100.00;60422.56;5116908;27;45433;-61
2023/10/02 04:14:43;;;;;;;;;24.50;22.50;;;;;-143.00;100.00;60422.56;5116974;27;45447;-61
2023/10/02 04:17:10;;;;;;;;;18.50;16.25;;;;;-143.00;100.00;60422.56;5098685;27;45419;-61
2023/10/02 04:19:40;;;;;;;;;18.75;15.00;;;;;-143.00;100.00;60422.56;5117174;27;45475;-61
2023/10/02 04:22:07;;;;;;;;;26.25;20.25;;;;;-143.00;100.00;60422.56;5117366;27;45474;-61
2023/10/02 04:24:51;;;;;;;;;23.00;18.00;;;;;-143.00;100.00;60422.56;5117242;27;45403;-61
2023/10/02 04:28:00;;;;;;;;;21.50;17.50;;;;;-143.00;100.00;60422.56;5117113;27;45556;-62
2023/10/02 04:32:49;;;;;;;;;22.00;18.75;;;;;-143.00;100.00;60422.56;5117004;27;45472;-61
2023/10/02 04:38:07;;;;;;;;;22.25;18.50;;;;;-143.00;100.00;60422.56;5117184;27;45345;-61
2023/10/02 04:40:52;;;;;;;;;18.00;17.00;;;;;-143.00;100.00;60422.56;5116375;27;45463;-61
2023/10/02 04:43:25;;;;;;;;;25.00;18.25;;;;;-143.00;100.00;60422.56;5116553;27;45739;-61
2023/10/02 04:46:08;;;;;;;;;20.25;16.25;;;;;-143.00;100.00;60422.56;5116841;27;45500;-61
2023/10/02 04:48:42;;;;;;;;;24.50;18.25;;;;;-143.00;100.00;60422.56;5116838;27;45521;-62
2023/10/02 04:51:12;;;;;;;;;24.25;23.00;;;;;-143.00;100.00;60422.56;5116602;27;45317;-61
2023/10/02 04:53:45;;;;;;;;;20.75;19.25;;;;;-143.00;100.00;60422.56;5116278;27;47264;-61
2023/10/02 04:58:49;;;;;;;;;18.00;15.00;;;;;-143.00;100.00;60422.56;5116106;27;45385;-61
2023/10/02 05:01:29;;;;;;;;;21.25;18.25;;;;;-143.00;100.00;60422.56;5116096;27;45387;-61
2023/10/02 05:03:55;;;;;;;;;23.75;23.25;;;;;-143.00;100.00;60422.56;5097376;27;47201;-61
2023/10/02 05:14:26;;;;;;;;;20.75;17.50;;;;;-143.00;100.00;60422.56;5095166;27;45728;-61
2023/10/02 05:19:56;;;;;;;;;19.50;19.00;;;;;-143.00;100.00;60422.56;5095766;27;45314;-61
2023/10/02 05:22:25;;;;;;;;;24.25;19.00;;;;;-143.00;100.00;60422.56;5076701;27;45490;-61
2023/10/02 05:24:58;;;;;;;;;21.00;17.00;;;;;-143.00;100.00;60422.56;5094245;27;45328;-61
2023/10/02 05:27:29;;;;;;;;;18.00;16.40;;;;;-143.00;100.00;60422.56;5094804;27;45518;-61
2023/10/02 05:29:55;;;;;;;;;21.25;19.00;;;;;-143.00;100.00;60422.56;5076439;27;45548;-61
2023/10/02 05:32:23;;;;;;;;;19.00;14.75;;;;;-143.00;100.00;60422.56;5095364;27;45428;-61
2023/10/02 05:37:39;;;;;;;;;21.80;19.20;;;;;-143.00;100.00;60422.56;5094881;27;45448;-61
2023/10/02 05:45:39;;;;;;;;;24.25;21.25;;;;;-143.00;100.00;60422.56;5094994;27;46175;-61
2023/10/02 05:48:14;;;;;;;;;23.00;19.25;;;;;-143.00;100.00;60422.56;5094687;27;45493;-61
2023/10/02 05:50:47;;;;;;;;;23.50;20.25;;;;;-143.00;100.00;60422.56;5094702;27;45455;-61
2023/10/02 05:53:14;;;;;;;;;24.00;19.50;;;;;-143.00;100.00;60422.56;5094530;27;45377;-61
2023/10/02 05:58:27;;;;;;;;;26.25;22.00;;;;;-143.00;100.00;60422.56;5094385;27;45472;-61
2023/10/02 06:00:54;;;;;;;;;28.50;24.00;;;;;-143.00;100.00;60422.56;5094923;27;45409;-61
2023/10/02 06:03:21;;;;;;;;;25.50;23.00;;;;;-143.00;100.00;60422.56;5094548;27;45369;-61
2023/10/02 06:06:10;;;;;;;;;24.50;19.00;;;;;-143.00;100.00;60422.56;5102210;27;47494;-61
2023/10/02 06:08:33;;;;;;;;;23.75;21.75;;;;;-143.00;100.00;60422.56;5114377;27;45432;-61
2023/10/02 06:11:09;;;;;;;;;18.25;15.75;;;;;-143.00;100.00;60422.56;5114842;27;45442;-61
2023/10/02 06:13:39;;;;;;;;;20.50;19.25;;;;;-143.00;100.00;60422.56;5096036;27;45400;-61
2023/10/02 06:16:07;;;;;;;;;21.50;19.00;;;;;-143.00;100.00;60422.56;5114843;27;45399;-61
2023/10/02 06:18:32;;;;;;;;;18.00;16.50;;;;;-143.00;100.00;60422.56;5114222;27;45407;-61
2023/10/02 06:21:00;;;;;;;;;25.00;19.25;;;;;-143.00;100.00;60422.56;5114335;27;45447;-61
2023/10/02 06:23:38;;;;;;;;;18.25;17.50;;;;;-143.00;100.00;60422.56;5114333;27;45372;-61
2023/10/02 06:26:06;;;;;;;;;20.00;18.50;;;;;-143.00;100.00;60422.56;5114082;27;46333;-61
2023/10/02 06:28:31;;;;;;;;;20.40;15.20;;;;;-143.00;100.00;60422.56;5114326;27;45453;-61
2023/10/02 06:30:58;;;;;;;;;22.75;21.00;;;;;-143.00;100.00;60422.56;5114720;27;45407;-61
2023/10/02 06:33:23;;;;;;;;;19.25;17.75;;;;;-143.00;100.00;60422.56;5113737;27;45418;-61
2023/10/02 06:36:00;;;;;;;;;23.25;20.50;;;;;-143.00;100.00;60422.56;5116515;27;45839;-61
2023/10/02 06:38:29;;;;;;;;;20.80;16.80;;;;;-143.00;100.00;60422.56;5117528;27;45403;-61
2023/10/02 06:40:59;;;;;;;;;23.25;17.50;;;;;-143.00;100.00;60422.56;5117787;27;45429;-61
2023/10/02 06:43:32;;;;;;;;;18.50;17.00;;;;;-143.00;100.00;60422.56;5118007;27;45420;-61
2023/10/02 06:46:23;;;;;;;;;20.75;20.00;;;;;-143.00;100.00;60422.56;5117520;27;46195;-61
2023/10/02 06:48:54;;;;;;;;;22.25;19.25;;;;;-143.00;100.00;60422.56;5117513;27;45297;-61
2023/10/02 06:51:20;;;;;;;;;28.25;24.50;;;;;-143.00;100.00;60422.56;5117214;27;45446;-61
2023/10/02 06:53:46;;;;;;;;;24.75;20.25;;;;;-143.00;100.00;60422.56;5117917;27;45460;-62
2023/10/02 06:56:12;;;;;;;;;20.25;17.75;;;;;-143.00;100.00;60422.56;5117826;27;46413;-61
2023/10/02 06:58:56;;;;;;;;;23.50;21.75;;;;;-143.00;100.00;60422.56;5117276;27;45355;-61
2023/10/02 07:01:27;;;;;;;;;23.75;19.75;;;;;-143.00;100.00;60422.56;5118230;27;45319;-60
2023/10/02 07:03:52;;;;;;;;;16.25;15.00;;;;;-143.00;100.00;60422.56;5117420;27;45432;-60
2023/10/02 07:06:19;;;;;;;;;19.25;18.00;;;;;-143.00;100.00;60422.56;5104356;27;45444;-60
2023/10/02 07:09:08;;;;;;;;;15.80;14.40;;;;;-143.00;100.00;60422.56;5097213;27;45368;-60
2023/10/02 07:11:35;;;;;;;;;17.50;16.50;;;;;-143.00;100.00;60422.56;5096530;27;45405;-61
2023/10/02 07:14:03;;;;;;;;;17.00;15.50;;;;;-143.00;100.00;60422.56;5097281;27;45589;-61
2023/10/02 07:16:29;;;;;;;;;19.00;17.75;;;;;-143.00;100.00;60422.56;5078800;27;47140;-60
2023/10/02 07:18:58;;;;;;;;;17.25;15.00;;;;;-143.00;100.00;60422.56;5096633;27;45319;-60
2023/10/02 07:21:26;;;;;;;;;22.75;16.75;;;;;-143.00;100.00;60422.56;5096633;27;45371;-60
2023/10/02 07:23:51;;;;;;;;;23.00;17.00;;;;;-143.00;100.00;60422.56;5096781;27;45511;-60
2023/10/02 07:26:19;;;;;;;;;25.00;18.75;;;;;-143.00;100.00;60422.56;5096676;27;46647;-60
2023/10/02 07:28:51;;;;;;;;;18.20;15.80;;;;;-143.00;100.00;60422.56;5096697;27;45397;-60
2023/10/02 07:31:18;;;;;;;;;21.00;17.00;;;;;-143.00;100.00;60422.56;5097035;27;45377;-60
2023/10/02 07:33:44;;;;;;;;;21.50;15.75;;;;;-143.00;100.00;60422.56;5097027;27;45464;-60
2023/10/02 07:36:14;;;;;;;;;25.00;18.75;;;;;-143.00;100.00;60422.56;5096985;27;45579;-61
2023/10/02 07:38:42;;;;;;;;;23.00;18.40;;;;;-143.00;100.00;60422.56;5097120;27;45543;-60
2023/10/02 07:41:15;;;;;;;;;18.25;17.25;;;;;-143.00;100.00;60422.56;5096467;27;45393;-60
2023/10/02 07:43:42;;;;;;;;;17.50;15.50;;;;;-143.00;100.00;60422.56;5096812;27;45498;-60
2023/10/02 07:46:16;;;;;;;;;16.00;14.75;;;;;-143.00;100.00;60422.56;5096092;27;46262;-61
2023/10/02 07:48:41;;;;;;;;;17.80;15.40;;;;;-143.00;100.00;60422.56;5096609;27;45421;-61
2023/10/02 07:51:10;;;;;;;;;17.00;13.75;;;;;-143.00;100.00;60422.56;5096723;27;45445;-61
2023/10/02 07:53:39;;;;;;;;;23.50;18.00;;;;;-143.00;100.00;60422.56;5096254;27;45424;-60
2023/10/02 07:56:11;;;;;;;;;17.75;15.50;;;;;-143.00;100.00;60422.56;5096110;27;45341;-60
2023/10/02 07:58:41;;;;;;;;;15.80;12.80;;;;;-143.00;100.00;60422.56;5096262;27;45326;-61
2023/10/02 08:01:11;;;;;;;;;19.75;16.50;;;;;-143.00;100.00;60422.56;5096113;27;45514;-60
2023/10/02 08:03:43;;;;;;;;;19.00;14.50;;;;;-143.00;100.00;60422.56;5077361;27;45367;-60
2023/10/02 08:06:21;;;;;;;;;19.25;14.00;;;;;-143.00;100.00;60422.56;5107277;27;46221;-60
2023/10/02 08:11:45;;;;;;;;;16.00;14.25;;;;;-143.00;100.00;60422.56;5116725;27;45418;-62
2023/10/02 08:14:34;;;;;;;;;15.50;14.50;;;;;-143.00;100.00;60422.56;5117106;27;45366;-62
2023/10/02 08:16:59;;;;;;;;;19.40;15.40;;;;;-143.00;100.00;60422.56;5117023;27;46146;-62
2023/10/02 08:19:24;;;;;;;;;16.00;14.20;;;;;-143.00;100.00;60422.56;5117005;27;45429;-62
2023/10/02 08:21:51;;;;;;;;;14.50;13.00;;;;;-143.00;100.00;60422.56;5116962;27;45446;-61
2023/10/02 08:24:19;;;;;;;;;15.50;14.75;;;;;-143.00;100.00;60422.56;5098390;27;45400;-60
2023/10/02 08:26:45;;;;;;;;;19.00;16.40;;;;;-143.00;100.00;60422.56;5115389;27;46625;-61
2023/10/02 08:29:14;;;;;;;;;15.20;13.00;;;;;-143.00;100.00;60422.56;5116072;27;45464;-60
2023/10/02 08:31:45;;;;;;;;;16.80;15.00;;;;;-143.00;100.00;60422.56;5116995;27;45512;-61
2023/10/02 08:34:12;;;;;;;;;21.50;14.50;;;;;-143.00;100.00;60422.56;5116116;27;45398;-61
2023/10/02 08:36:41;;;;;;;;;15.00;14.00;;;;;-143.00;100.00;60422.56;5116442;27;47167;-60
2023/10/02 08:39:08;;;;;;;;;20.40;17.80;;;;;-143.00;100.00;60422.56;5115976;27;45393;-61
2023/10/02 08:41:43;;;;;;;;;20.60;14.80;;;;;-143.00;100.00;60422.56;5097646;27;45452;-61
2023/10/02 08:44:13;;;;;;;;;20.00;16.50;;;;;-143.00;100.00;60422.56;5116178;27;45253;-61
2023/10/02 08:46:42;;;;;;;;;21.50;17.75;;;;;-143.00;100.00;60422.56;5097783;27;47243;-61
2023/10/02 08:49:12;;;;;;;;;18.80;18.40;;;;;-143.00;100.00;60422.56;5116673;27;45366;-61
2023/10/02 08:51:38;;;;;;;;;22.60;18.20;;;;;-143.00;100.00;60422.56;5116378;27;45626;-61
2023/10/02 08:54:05;;;;;;;;;20.50;17.25;;;;;-143.00;100.00;60422.56;5116076;27;45485;-61
2023/10/02 08:56:44;;;;;;;;;17.00;16.40;;;;;-143.00;100.00;60422.56;5115993;27;46068;-61
2023/10/02 08:59:18;;;;;;;;;15.80;15.80;;;;;-143.00;100.00;60422.56;5115404;27;45360;-60
2023/10/02 09:01:47;;;;;;;;;12.20;12.20;;;;;-143.00;100.00;60422.56;5116358;27;45432;-61
2023/10/02 09:04:22;;;;;;;;;17.25;15.25;;;;;-143.00;100.00;60422.56;5116440;27;45520;-61
2023/10/02 09:06:58;;;;;;;;;16.60;15.80;;;;;-143.00;100.00;60422.56;5115201;27;46192;-60
2023/10/02 09:09:35;;;;;;;;;23.60;19.60;;;;;-143.00;100.00;60422.56;5115565;27;45464;-61
2023/10/02 09:12:03;;;;;;;;;13.40;12.80;;;;;-143.00;100.00;60422.56;5097339;27;45334;-61
2023/10/02 09:17:23;;;;;;;;;19.40;17.40;;;;;-143.00;100.00;60422.56;5116002;27;45647;-61
2023/10/02 09:19:58;;;;;;;;;18.20;14.60;;;;;-143.00;100.00;60422.56;5116091;27;45378;-60
2023/10/02 09:22:27;;;;;;;;;15.60;14.00;;;;;-143.00;100.00;60422.56;5115659;27;45443;-60
2023/10/02 09:24:59;;;;;;;;;18.25;14.25;;;;;-143.00;100.00;60422.56;5115732;27;45609;-60
2023/10/02 09:27:38;;;;;;;;;18.40;15.00;;;;;-143.00;100.00;60422.56;5115987;27;45524;-62
2023/10/02 09:32:49;;;;;;;;;14.20;14.20;;;;;-143.00;100.00;60422.56;5116129;27;45446;-62
2023/10/02 09:35:22;;;;;;;;;18.75;18.00;;;;;-143.00;100.00;60422.56;5115904;27;45559;-62
2023/10/02 09:38:09;;;;;;;;;16.40;15.60;;;;;-143.00;100.00;60422.56;5098050;27;46612;-61
2023/10/02 09:43:22;;;;;;;;;18.20;16.20;;;;;-143.00;100.00;60422.56;5115432;27;45482;-61
2023/10/02 09:45:53;;;;;;;;;18.00;15.20;;;;;-143.00;100.00;60422.56;5115633;27;45464;-61
2023/10/02 09:48:46;;;;;;;;;17.00;14.00;;;;;-143.00;100.00;60422.56;5115605;27;46404;-62
2023/10/02 09:51:27;;;;;;;;;16.20;13.40;;;;;-143.00;100.00;60422.56;5096155;27;45334;-61
2023/10/02 09:54:05;;;;;;;;;17.80;15.40;;;;;-143.00;100.00;60422.56;5114925;27;45352;-61
2023/10/02 09:57:04;;;;;;;;;11.75;11.75;;;;;-143.00;100.00;60422.56;5103824;27;45474;-61
2023/10/02 09:59:46;;;;;;;;;14.40;14.40;;;;;-143.00;100.00;60422.56;5093469;27;45597;-62
2023/10/02 10:13:26;;;;;;;;;12.60;11.80;;;;;-143.00;100.00;60422.56;5097389;27;45454;-61
2023/10/02 10:16:19;;;;;;;;;14.40;13.60;;;;;-143.00;100.00;60422.56;5097755;27;45419;-61
2023/10/02 10:21:56;;;;;;;;;15.60;13.60;;;;;-143.00;100.00;60422.56;5077619;28;45490;-61
2023/10/02 10:27:41;;;;;;;;;13.00;12.80;;;;;-143.00;100.00;60422.56;5093131;27;45474;-61
2023/10/02 10:30:19;;;;;;;;;14.75;12.75;;;;;-143.00;100.00;60422.56;5076114;28;45432;-61
2023/10/02 10:32:45;;;;;;;;;15.00;13.00;;;;;-143.00;100.00;60422.56;5087341;27;46444;-67
2023/10/02 10:35:33;;;;;;;;;14.75;12.50;;;;;-143.00;100.00;60422.56;5079131;27;45518;-67
2023/10/02 10:37:58;;;;;;;;;14.75;14.75;;;;;-143.00;100.00;60422.56;5079226;27;45448;-67
2023/10/02 10:40:47;;;;;;;;;17.75;11.25;;;;;-143.00;100.00;60422.56;5096980;27;45488;-68
2023/10/02 10:43:15;;;;;;;;;19.40;16.20;;;;;-143.00;100.00;60422.56;5097422;27;46119;-67
2023/10/02 10:45:41;;;;;;;;;15.40;14.40;;;;;-143.00;100.00;60422.56;5097437;27;45495;-67
2023/10/02 10:48:23;;;;;;;;;19.40;17.60;;;;;-143.00;100.00;60422.56;5118168;27;45462;-67
2023/10/02 10:51:06;;;;;;;;;19.00;15.00;;;;;-143.00;100.00;60422.56;5118327;27;45416;-67
2023/10/02 10:53:41;;;;;;;;;16.20;14.40;;;;;-143.00;100.00;60422.56;5117970;27;46091;-67
2023/10/02 10:56:19;;;;;;;;;13.60;13.00;;;;;-143.00;100.00;60422.56;5117790;27;45344;-67
2023/10/02 10:58:51;;;;;;;;;17.00;14.00;;;;;-143.00;100.00;60422.56;5117792;27;45298;-67
2023/10/02 11:01:17;;;;;;;;;14.20;13.80;;;;;-143.00;100.00;60422.56;5118299;27;45478;-67
2023/10/02 11:03:43;;;;;;;;;21.75;16.00;;;;;-143.00;100.00;60422.56;5118149;27;45370;-67
2023/10/02 11:06:10;;;;;;;;;18.20;15.20;;;;;-143.00;100.00;60422.56;5106209;27;45398;-67
2023/10/02 11:08:40;;;;;;;;;16.80;15.20;;;;;-143.00;100.00;60422.56;5079079;27;45498;-67
2023/10/02 11:11:18;;;;;;;;;20.75;17.50;;;;;-143.00;100.00;60422.56;5096709;27;45475;-67
2023/10/02 11:13:58;;;;;;;;;15.80;15.00;;;;;-143.00;100.00;60422.56;5097110;27;45602;-67
2023/10/02 11:16:37;;;;;;;;;17.40;17.40;;;;;-143.00;100.00;60422.56;5097151;27;45533;-67
2023/10/02 11:19:14;;;;;;;;;18.40;13.40;;;;;-143.00;100.00;60422.56;5096948;27;45669;-68
2023/10/02 11:22:19;;;;;;;;;17.80;15.00;;;;;-143.00;100.00;60422.56;5077219;27;45386;-68
2023/10/02 11:25:18;;;;;;;;;23.40;14.20;;;;;-143.00;100.00;60422.56;5077764;27;48207;-69
2023/10/02 11:27:56;;;;;;;;;15.40;13.40;;;;;-143.00;100.00;60422.56;5096876;27;45424;-66
2023/10/02 11:30:31;;;;;;;;;14.60;14.60;;;;;-143.00;100.00;60422.56;5096906;27;45331;-68
2023/10/02 11:33:03;;;;;;;;;18.20;16.40;;;;;-143.00;100.00;60422.56;5096688;27;45364;-69
2023/10/02 11:35:28;;;;;;;;;14.60;13.00;;;;;-143.00;100.00;60422.56;5097077;27;45487;-67
2023/10/02 11:37:56;;;;;;;;;15.75;14.75;;;;;-143.00;100.00;60422.56;5096307;27;45496;-67
2023/10/02 11:40:25;;;;;;;;;21.20;17.40;;;;;-143.00;100.00;60422.56;5096707;27;45399;-68
2023/10/02 11:42:53;;;;;;;;;13.40;12.00;;;;;-143.00;100.00;60422.56;5096986;27;45315;-67
2023/10/02 11:45:18;;;;;;;;;17.00;16.00;;;;;-143.00;100.00;60422.56;5096852;27;46153;-68
2023/10/02 11:47:44;;;;;;;;;17.75;17.00;;;;;-143.00;100.00;60422.56;5096764;27;45484;-68
2023/10/02 11:50:09;;;;;;;;;15.75;15.00;;;;;-143.00;100.00;60422.56;5097219;27;45418;-67
2023/10/02 11:52:35;;;;;;;;;18.75;15.75;;;;;-143.00;100.00;60422.56;5096114;27;45462;-67
2023/10/02 11:55:00;;;;;;;;;15.25;13.75;;;;;-143.00;100.00;60422.56;5096600;27;45406;-68
2023/10/02 11:57:26;;;;;;;;;17.50;17.00;;;;;-143.00;100.00;60422.56;5096013;27;45443;-68
2023/10/02 11:59:51;;;;;;;;;21.00;17.50;;;;;-143.00;100.00;60422.56;5096465;27;45386;-68
2023/10/02 12:02:17;;;;;;;;;16.50;15.75;;;;;-143.00;100.00;60422.56;5096653;27;45417;-68
2023/10/02 12:04:44;;;;;;;;;18.00;18.00;;;;;-143.00;100.00;60422.56;5096752;27;47564;-67
2023/10/02 12:07:10;;;;;;;;;14.60;13.80;;;;;-143.00;100.00;60422.56;5116653;27;45372;-68
2023/10/02 12:09:36;;;;;;;;;18.80;16.40;;;;;-143.00;100.00;60422.56;5117768;27;45390;-68
2023/10/02 12:12:02;;;;;;;;;22.00;18.25;;;;;-143.00;100.00;60422.56;5116911;27;45431;-68
2023/10/02 12:14:29;;;;;;;;;13.40;12.20;;;;;-143.00;100.00;60422.56;5097683;27;46472;-68
2023/10/02 12:16:57;;;;;;;;;15.20;14.40;;;;;-143.00;100.00;60422.56;5092376;27;45463;-67
2023/10/02 12:19:26;;;;;;;;;19.80;18.60;;;;;-143.00;100.00;60422.56;5077592;27;45374;-68
2023/10/02 12:21:54;;;;;;;;;17.80;16.80;;;;;-143.00;100.00;60422.56;5095707;27;45412;-60
2023/10/02 12:24:20;;;;;;;;;20.25;18.50;;;;;-143.00;100.00;60422.56;5095301;27;45456;-66
2023/10/02 12:26:46;;;;;;;;;11.40;11.20;;;;;-143.00;100.00;60422.56;5095444;27;45418;-59
2023/10/02 12:29:12;;;;;;;;;15.00;13.50;;;;;-143.00;100.00;60422.56;5077769;27;45507;-64